createdAt,value
2022-12-31T00:00:05.113Z,11.41
2022-12-31T00:02:31.752Z,11.41
2022-12-31T00:04:58.239Z,11.40
2022-12-31T00:07:24.884Z,11.39
2022-12-31T00:09:51.257Z,11.42
2022-12-31T00:12:17.675Z,11.42
2022-12-31T00:14:44.390Z,11.43
2022-12-31T00:17:10.853Z,11.43
2022-12-31T00:19:37.399Z,11.46
2022-12-31T00:22:03.806Z,11.45
2022-12-31T00:24:31.164Z,11.46
2022-12-31T00:26:57.685Z,11.44
2022-12-31T00:29:24.215Z,11.44
2022-12-31T00:31:50.657Z,11.45
2022-12-31T00:34:17.111Z,11.45
2022-12-31T00:36:45.916Z,11.44
2022-12-31T00:39:13.052Z,11.45
2022-12-31T00:41:39.715Z,11.45
2022-12-31T00:44:06.438Z,11.45
2022-12-31T00:46:32.932Z,11.44
2022-12-31T00:48:59.605Z,11.44
2022-12-31T00:51:27.653Z,11.43
2022-12-31T00:53:56.985Z,11.43
2022-12-31T00:56:28.611Z,11.43
2022-12-31T00:58:55.264Z,11.43
2022-12-31T01:01:24.746Z,11.44
2022-12-31T01:03:53.433Z,11.42
2022-12-31T01:06:20.929Z,11.42
2022-12-31T01:08:51.610Z,11.38
2022-12-31T01:11:24.632Z,11.35
2022-12-31T01:13:57.540Z,11.31
2022-12-31T01:16:42.496Z,11.30
2022-12-31T01:19:12.381Z,11.27
2022-12-31T01:21:40.776Z,11.25
2022-12-31T01:24:08.284Z,11.21
2022-12-31T01:26:34.780Z,11.19
2022-12-31T01:29:01.562Z,11.18
2022-12-31T01:31:28.288Z,11.16
2022-12-31T01:33:54.802Z,11.15
2022-12-31T01:36:27.954Z,11.14
2022-12-31T01:38:56.301Z,11.13
2022-12-31T01:41:26.338Z,11.10
2022-12-31T01:44:01.398Z,11.09
2022-12-31T01:46:34.083Z,11.08
2022-12-31T01:49:08.976Z,11.07
2022-12-31T01:51:36.373Z,11.05
2022-12-31T01:54:06.523Z,11.02
2022-12-31T01:56:34.974Z,11.03
2022-12-31T01:59:05.564Z,11.00
2022-12-31T02:01:33.619Z,10.98
2022-12-31T02:04:11.246Z,10.97
2022-12-31T02:06:43.020Z,11.00
2022-12-31T02:09:11.279Z,10.98
2022-12-31T02:11:38.172Z,11.00
2022-12-31T02:14:09.669Z,11.01
2022-12-31T02:17:03.964Z,10.98
2022-12-31T02:20:02.766Z,10.98
2022-12-31T02:23:17.661Z,10.98
2022-12-31T02:25:53.171Z,10.96
2022-12-31T02:29:08.445Z,10.96
2022-12-31T02:31:42.503Z,10.96
2022-12-31T02:34:17.953Z,10.95
2022-12-31T02:36:47.956Z,10.95
2022-12-31T02:39:15.158Z,10.96
2022-12-31T02:41:50.453Z,10.96
2022-12-31T02:44:38.050Z,10.94
2022-12-31T02:47:20.390Z,10.93
2022-12-31T02:50:07.972Z,10.93
2022-12-31T02:52:51.986Z,10.91
2022-12-31T02:55:32.035Z,10.88
2022-12-31T02:58:01.413Z,10.89
2022-12-31T03:00:50.137Z,10.87
2022-12-31T03:03:18.428Z,10.84
2022-12-31T03:05:46.695Z,10.82
2022-12-31T03:08:21.455Z,10.81
2022-12-31T03:10:47.828Z,10.79
2022-12-31T03:13:14.234Z,10.78
2022-12-31T03:15:40.764Z,10.78
2022-12-31T03:18:12.864Z,10.77
2022-12-31T03:21:01.022Z,10.76
2022-12-31T03:23:33.218Z,10.76
2022-12-31T03:26:00.396Z,10.74
2022-12-31T03:28:29.735Z,10.73
2022-12-31T03:31:01.413Z,10.73
2022-12-31T03:33:37.190Z,10.71
2022-12-31T03:36:05.856Z,10.71
2022-12-31T03:38:32.305Z,10.68
2022-12-31T03:40:59.026Z,10.68
2022-12-31T03:43:25.504Z,10.66
2022-12-31T03:45:53.302Z,10.64
2022-12-31T03:48:22.137Z,10.63
2022-12-31T03:50:49.418Z,10.62
2022-12-31T03:53:16.119Z,10.60
2022-12-31T03:55:42.489Z,10.58
2022-12-31T03:58:08.908Z,10.58
2022-12-31T04:00:35.279Z,10.56
2022-12-31T04:03:02.831Z,10.55
2022-12-31T04:05:29.211Z,10.53
2022-12-31T04:07:56.495Z,10.51
2022-12-31T04:10:22.936Z,10.51
2022-12-31T04:12:49.379Z,10.49
2022-12-31T04:15:20.745Z,10.47
2022-12-31T04:17:48.156Z,10.46
2022-12-31T04:20:15.567Z,10.43
2022-12-31T04:22:42.006Z,10.43
2022-12-31T04:25:11.885Z,10.41
2022-12-31T04:27:43.703Z,10.39
2022-12-31T04:30:12.323Z,10.39
2022-12-31T04:32:38.785Z,10.38
2022-12-31T04:35:05.747Z,10.38
2022-12-31T04:37:32.336Z,10.37
2022-12-31T04:40:03.692Z,10.36
2022-12-31T04:42:32.169Z,10.36
2022-12-31T04:44:58.618Z,10.35
2022-12-31T04:47:25.069Z,10.33
2022-12-31T04:49:51.423Z,10.33
2022-12-31T04:52:18.008Z,10.31
2022-12-31T04:54:44.425Z,10.31
2022-12-31T04:57:10.996Z,10.31
2022-12-31T04:59:37.529Z,10.32
2022-12-31T05:02:04.051Z,10.31
2022-12-31T05:04:30.721Z,10.30
2022-12-31T05:06:57.079Z,10.32
2022-12-31T05:09:24.180Z,10.32
2022-12-31T05:11:50.628Z,10.31
2022-12-31T05:14:17.277Z,10.31
2022-12-31T05:16:43.975Z,10.31
2022-12-31T05:19:10.561Z,10.32
2022-12-31T05:21:37.044Z,10.31
2022-12-31T05:24:03.623Z,10.31
2022-12-31T05:26:30.349Z,10.32
2022-12-31T05:28:57.019Z,10.34
2022-12-31T05:31:23.487Z,10.37
2022-12-31T05:33:49.991Z,10.37
2022-12-31T05:36:16.430Z,10.39
2022-12-31T05:38:44.182Z,10.42
2022-12-31T05:41:11.241Z,10.43
2022-12-31T05:43:40.519Z,10.46
2022-12-31T05:46:07.384Z,10.49
2022-12-31T05:48:33.853Z,10.52
2022-12-31T05:51:00.285Z,10.58
2022-12-31T05:53:26.908Z,10.62
2022-12-31T05:55:53.327Z,10.65
2022-12-31T05:58:19.920Z,10.69
2022-12-31T06:00:46.516Z,10.72
2022-12-31T06:03:13.190Z,10.75
2022-12-31T06:05:43.254Z,10.76
2022-12-31T06:08:11.439Z,10.78
2022-12-31T06:10:38.325Z,10.82
2022-12-31T06:13:05.237Z,10.84
2022-12-31T06:15:31.994Z,10.84
2022-12-31T06:17:58.423Z,10.88
2022-12-31T06:20:25.023Z,10.90
2022-12-31T06:22:51.681Z,10.92
2022-12-31T06:25:18.284Z,10.93
2022-12-31T06:27:44.706Z,10.96
2022-12-31T06:30:11.908Z,10.97
2022-12-31T06:32:39.390Z,11.00
2022-12-31T06:35:06.715Z,11.00
2022-12-31T06:37:33.353Z,11.02
2022-12-31T06:40:00.441Z,11.04
2022-12-31T06:42:31.358Z,11.06
2022-12-31T06:44:58.988Z,11.08
2022-12-31T06:47:25.980Z,11.13
2022-12-31T06:49:53.132Z,11.19
2022-12-31T06:52:19.861Z,11.22
2022-12-31T06:54:46.493Z,11.25
2022-12-31T06:57:13.275Z,11.29
2022-12-31T06:59:39.990Z,11.35
2022-12-31T07:02:29.993Z,11.40
2022-12-31T07:05:26.667Z,11.46
2022-12-31T07:08:08.268Z,11.53
2022-12-31T07:10:43.914Z,11.58
2022-12-31T07:13:27.116Z,11.61
2022-12-31T07:16:31.198Z,11.65
2022-12-31T07:19:17.496Z,11.71
2022-12-31T07:21:44.353Z,11.78
2022-12-31T07:24:11.526Z,11.81
2022-12-31T07:27:01.895Z,11.85
2022-12-31T07:29:57.836Z,11.91
2022-12-31T07:32:41.583Z,11.96
2022-12-31T07:35:21.882Z,12.02
2022-12-31T07:37:48.199Z,12.07
2022-12-31T07:40:38.314Z,12.16
2022-12-31T07:43:16.999Z,12.19
2022-12-31T07:46:22.551Z,12.24
2022-12-31T07:48:49.575Z,12.22
2022-12-31T07:51:16.441Z,12.27
2022-12-31T07:53:42.912Z,12.29
2022-12-31T07:56:09.831Z,12.31
2022-12-31T07:58:55.213Z,12.35
2022-12-31T08:01:48.132Z,12.33
2022-12-31T08:04:20.844Z,12.37
2022-12-31T08:07:06.329Z,12.39
2022-12-31T08:10:15.652Z,12.41
2022-12-31T08:12:46.791Z,12.42
2022-12-31T08:15:15.946Z,12.40
2022-12-31T08:17:43.503Z,12.41
2022-12-31T08:20:15.835Z,12.42
2022-12-31T08:23:04.245Z,12.42
2022-12-31T08:25:54.991Z,12.44
2022-12-31T08:28:36.714Z,12.43
2022-12-31T08:31:19.736Z,12.43
2022-12-31T08:34:05.590Z,12.43
2022-12-31T08:36:36.593Z,12.41
2022-12-31T08:39:13.248Z,12.42
2022-12-31T08:41:43.420Z,12.42
2022-12-31T08:44:49.521Z,12.41
2022-12-31T08:47:34.130Z,12.42
2022-12-31T08:50:04.464Z,12.42
2022-12-31T08:52:31.105Z,12.43
2022-12-31T08:54:58.025Z,12.44
2022-12-31T08:57:37.141Z,12.43
2022-12-31T09:00:09.987Z,12.42
2022-12-31T09:03:03.930Z,12.42
2022-12-31T09:05:55.007Z,12.41
2022-12-31T09:08:36.769Z,12.42
2022-12-31T09:11:06.088Z,12.42
2022-12-31T09:13:38.429Z,12.43
2022-12-31T09:16:24.016Z,12.42
2022-12-31T09:18:50.619Z,12.44
2022-12-31T09:21:17.153Z,12.47
2022-12-31T09:23:43.805Z,12.50
2022-12-31T09:26:16.174Z,12.55
2022-12-31T09:29:04.178Z,12.61
2022-12-31T09:31:33.035Z,12.65
2022-12-31T09:34:12.901Z,12.69
2022-12-31T09:36:48.525Z,12.72
2022-12-31T09:39:25.707Z,12.73
2022-12-31T09:41:55.218Z,12.74
2022-12-31T09:44:59.171Z,12.77
2022-12-31T09:47:59.680Z,12.84
2022-12-31T09:50:52.649Z,12.91
2022-12-31T09:53:29.175Z,12.96
2022-12-31T09:56:17.036Z,12.99
2022-12-31T09:59:05.296Z,13.04
2022-12-31T10:01:37.855Z,13.07
2022-12-31T10:04:28.514Z,13.10
2022-12-31T10:07:16.839Z,13.09
2022-12-31T10:10:19.763Z,13.08
2022-12-31T10:13:05.233Z,13.12
2022-12-31T10:16:05.443Z,13.20
2022-12-31T10:19:05.758Z,13.28
2022-12-31T10:21:47.398Z,13.37
2022-12-31T10:24:47.935Z,13.43
2022-12-31T10:27:28.619Z,13.52
2022-12-31T10:30:03.388Z,13.59
2022-12-31T10:32:38.780Z,13.66
2022-12-31T10:35:26.957Z,13.69
2022-12-31T10:38:06.097Z,13.75
2022-12-31T10:41:26.460Z,13.80
2022-12-31T10:44:26.295Z,13.82
2022-12-31T10:47:34.228Z,13.85
2022-12-31T10:50:30.337Z,13.80
2022-12-31T10:52:59.717Z,13.79
2022-12-31T10:56:01.384Z,13.80
2022-12-31T10:59:10.826Z,13.80
2022-12-31T11:02:10.121Z,13.78
2022-12-31T11:04:55.625Z,13.77
2022-12-31T11:07:40.478Z,13.74
2022-12-31T11:10:25.488Z,13.68
2022-12-31T11:12:59.966Z,13.65
2022-12-31T11:15:55.919Z,13.66
2022-12-31T11:19:00.980Z,13.64
2022-12-31T11:21:49.164Z,13.66
2022-12-31T11:24:33.703Z,13.68
2022-12-31T11:27:18.691Z,13.68
2022-12-31T11:30:06.949Z,13.67
2022-12-31T11:32:50.633Z,13.65
2022-12-31T11:35:43.354Z,13.65
2022-12-31T11:38:29.866Z,13.64
2022-12-31T11:41:11.140Z,13.63
2022-12-31T11:43:46.102Z,13.63
2022-12-31T11:46:28.064Z,13.64
2022-12-31T11:49:23.965Z,13.64
2022-12-31T11:52:32.680Z,13.64
2022-12-31T11:55:14.302Z,13.63
2022-12-31T11:57:46.527Z,13.64
2022-12-31T12:00:19.014Z,13.71
2022-12-31T12:03:10.564Z,13.75
2022-12-31T12:05:39.685Z,13.80
2022-12-31T12:08:07.038Z,13.87
2022-12-31T12:10:38.436Z,13.91
2022-12-31T12:13:21.786Z,13.95
2022-12-31T12:15:51.423Z,13.97
2022-12-31T12:18:40.855Z,13.99
2022-12-31T12:21:22.249Z,14.00
2022-12-31T12:24:04.025Z,14.00
2022-12-31T12:26:43.113Z,13.97
2022-12-31T12:29:20.731Z,13.95
2022-12-31T12:32:04.137Z,13.94
2022-12-31T12:34:37.161Z,13.95
2022-12-31T12:37:03.853Z,13.99
2022-12-31T12:39:32.723Z,14.00
2022-12-31T12:42:08.030Z,14.02
2022-12-31T12:44:35.854Z,14.03
2022-12-31T12:47:04.951Z,14.08
2022-12-31T12:49:32.616Z,14.08
2022-12-31T12:52:23.380Z,14.07
2022-12-31T12:54:59.087Z,14.09
2022-12-31T12:57:34.797Z,14.10
2022-12-31T13:00:18.590Z,14.11
2022-12-31T13:03:13.154Z,14.12
2022-12-31T13:05:51.898Z,14.17
2022-12-31T13:08:47.202Z,14.19
2022-12-31T13:11:54.558Z,14.21
2022-12-31T13:15:08.824Z,14.21
2022-12-31T13:17:51.014Z,14.19
2022-12-31T13:20:55.825Z,14.16
2022-12-31T13:23:28.168Z,14.12
2022-12-31T13:26:32.657Z,14.10
2022-12-31T13:29:01.706Z,14.06
2022-12-31T13:31:37.750Z,14.04
2022-12-31T13:34:11.709Z,14.02
2022-12-31T13:36:42.128Z,14.01
2022-12-31T13:39:40.765Z,13.99
2022-12-31T13:42:22.321Z,13.98
2022-12-31T13:44:58.994Z,13.95
2022-12-31T13:47:35.781Z,13.97
2022-12-31T13:50:30.482Z,13.96
2022-12-31T13:53:04.758Z,13.94
2022-12-31T13:55:40.731Z,13.92
2022-12-31T13:58:35.580Z,13.92
2022-12-31T14:01:07.475Z,13.90
2022-12-31T14:04:03.135Z,13.92
2022-12-31T14:06:55.411Z,13.94
2022-12-31T14:09:31.162Z,13.95
2022-12-31T14:12:22.475Z,13.97
2022-12-31T14:15:18.170Z,13.97
2022-12-31T14:17:47.540Z,13.97
2022-12-31T14:20:33.151Z,13.99
2022-12-31T14:23:18.342Z,13.98
2022-12-31T14:25:59.818Z,13.96
2022-12-31T14:28:47.306Z,13.97
2022-12-31T14:31:27.698Z,13.94
2022-12-31T14:34:12.666Z,13.93
2022-12-31T14:36:57.802Z,13.92
2022-12-31T14:39:38.714Z,13.87
2022-12-31T14:42:24.959Z,13.79
2022-12-31T14:45:18.856Z,13.73
2022-12-31T14:48:03.470Z,13.71
2022-12-31T14:50:33.160Z,13.70
2022-12-31T14:52:59.490Z,13.68
2022-12-31T14:55:30.362Z,13.66
2022-12-31T14:58:27.092Z,13.69
2022-12-31T15:01:14.749Z,13.67
2022-12-31T15:03:45.836Z,13.68
2022-12-31T15:06:12.608Z,13.66
2022-12-31T15:08:56.023Z,13.63
2022-12-31T15:11:34.666Z,13.64
2022-12-31T15:14:37.589Z,13.67
2022-12-31T15:17:04.450Z,13.69
2022-12-31T15:19:49.694Z,13.71
2022-12-31T15:22:43.880Z,13.70
2022-12-31T15:25:35.391Z,13.68
2022-12-31T15:28:07.853Z,13.69
2022-12-31T15:30:47.300Z,13.71
2022-12-31T15:33:25.759Z,13.70
2022-12-31T15:35:54.902Z,13.70
2022-12-31T15:38:38.536Z,13.71
2022-12-31T15:41:15.761Z,13.79
2022-12-31T15:44:00.365Z,13.82
2022-12-31T15:46:31.683Z,13.82
2022-12-31T15:49:07.865Z,13.90
2022-12-31T15:51:45.070Z,13.95
2022-12-31T15:54:36.295Z,13.95
2022-12-31T15:57:09.077Z,14.02
2022-12-31T15:59:38.114Z,14.06
2022-12-31T16:02:05.249Z,14.04
2022-12-31T16:04:39.280Z,14.03
2022-12-31T16:07:05.773Z,14.05
2022-12-31T16:09:34.850Z,14.08
2022-12-31T16:12:03.750Z,14.11
2022-12-31T16:14:38.136Z,14.13
2022-12-31T16:17:05.595Z,14.14
2022-12-31T16:19:35.642Z,14.22
2022-12-31T16:22:09.393Z,14.19
2022-12-31T16:24:48.983Z,14.17
2022-12-31T16:27:25.326Z,14.17
2022-12-31T16:30:01.885Z,14.19
2022-12-31T16:32:35.086Z,14.13
2022-12-31T16:35:01.563Z,14.14
2022-12-31T16:37:27.995Z,14.18
2022-12-31T16:39:57.420Z,14.27
2022-12-31T16:42:25.635Z,14.27
2022-12-31T16:44:53.811Z,14.29
2022-12-31T16:47:41.220Z,14.32
2022-12-31T16:50:16.027Z,14.34
2022-12-31T16:52:45.507Z,14.31
2022-12-31T16:55:18.427Z,14.31
2022-12-31T16:57:49.110Z,14.31
2022-12-31T17:00:17.859Z,14.34
2022-12-31T17:03:00.332Z,14.34
2022-12-31T17:05:28.067Z,14.33
2022-12-31T17:07:55.055Z,14.33
2022-12-31T17:10:36.088Z,14.30
2022-12-31T17:13:29.548Z,14.26
2022-12-31T17:15:58.117Z,14.30
2022-12-31T17:18:36.752Z,14.24
2022-12-31T17:21:08.389Z,14.26
2022-12-31T17:23:37.658Z,14.24
2022-12-31T17:26:11.640Z,14.24
2022-12-31T17:28:46.915Z,14.22
2022-12-31T17:31:32.227Z,14.18
2022-12-31T17:34:19.087Z,14.16
2022-12-31T17:37:00.759Z,14.24
2022-12-31T17:39:41.585Z,14.25
2022-12-31T17:42:10.605Z,14.21
2022-12-31T17:44:39.668Z,14.19
2022-12-31T17:47:08.514Z,14.15
2022-12-31T17:49:36.720Z,14.15
2022-12-31T17:52:03.265Z,14.16
2022-12-31T17:54:29.696Z,14.20
2022-12-31T17:56:56.159Z,14.29
2022-12-31T17:59:25.640Z,14.32
2022-12-31T18:01:52.272Z,14.29
2022-12-31T18:04:20.708Z,14.26
2022-12-31T18:06:47.145Z,14.29
2022-12-31T18:09:13.606Z,14.26
2022-12-31T18:11:40.942Z,14.30
2022-12-31T18:14:07.535Z,14.27
2022-12-31T18:16:34.304Z,14.31
2022-12-31T18:19:01.331Z,14.31
2022-12-31T18:21:34.117Z,14.27
2022-12-31T18:26:29.298Z,14.26
2022-12-31T18:28:58.071Z,14.27
2022-12-31T18:31:30.008Z,14.28
2022-12-31T18:33:59.009Z,14.30
2022-12-31T18:36:27.504Z,14.30
2022-12-31T18:38:54.387Z,14.27
2022-12-31T18:41:24.340Z,14.29
2022-12-31T18:43:50.975Z,14.32
2022-12-31T18:46:22.634Z,14.37
2022-12-31T18:48:49.396Z,14.35
2022-12-31T18:51:31.388Z,14.36
2022-12-31T18:53:59.660Z,14.35
2022-12-31T18:56:26.267Z,14.34
2022-12-31T18:58:52.702Z,14.35
2022-12-31T19:01:38.565Z,14.36
2022-12-31T19:04:13.867Z,14.39
2022-12-31T19:06:40.568Z,14.43
2022-12-31T19:09:23.671Z,14.47
2022-12-31T19:11:53.401Z,14.46
2022-12-31T19:14:24.164Z,14.44
2022-12-31T19:16:52.285Z,14.43
2022-12-31T19:19:19.105Z,14.41
2022-12-31T19:21:46.271Z,14.49
2022-12-31T19:24:15.989Z,14.47
2022-12-31T19:26:43.609Z,14.53
2022-12-31T19:29:17.525Z,14.42
2022-12-31T19:31:44.302Z,14.44
2022-12-31T19:34:10.952Z,14.45
2022-12-31T19:36:43.730Z,14.44
2022-12-31T19:39:15.607Z,14.31
2022-12-31T19:41:43.620Z,14.30
2022-12-31T19:44:15.820Z,14.29
2022-12-31T19:46:42.293Z,14.30
2022-12-31T19:49:11.579Z,14.27
2022-12-31T19:51:38.435Z,14.30
2022-12-31T19:54:05.351Z,14.27
2022-12-31T19:56:32.051Z,14.29
2022-12-31T19:58:58.500Z,14.27
2022-12-31T20:01:25.092Z,14.24
2022-12-31T20:03:51.775Z,14.24
2022-12-31T20:06:19.337Z,14.24
2022-12-31T20:08:46.518Z,14.23
2022-12-31T20:11:17.287Z,14.28
2022-12-31T20:13:44.805Z,14.26
2022-12-31T20:16:17.257Z,14.28
2022-12-31T20:18:45.758Z,14.25
2022-12-31T20:21:16.600Z,14.26
2022-12-31T20:23:43.500Z,14.30
2022-12-31T20:26:12.250Z,14.32
2022-12-31T20:28:39.781Z,14.33
2022-12-31T20:31:08.116Z,14.28
2022-12-31T20:33:34.861Z,14.28
2022-12-31T20:36:05.994Z,14.26
2022-12-31T20:38:32.820Z,14.25
2022-12-31T20:41:08.745Z,14.31
2022-12-31T20:43:36.240Z,14.30
2022-12-31T20:46:16.112Z,14.35
2022-12-31T20:48:44.205Z,14.37
2022-12-31T20:51:11.234Z,14.38
2022-12-31T20:53:38.092Z,14.33
2022-12-31T20:56:09.645Z,14.33
2022-12-31T20:58:36.416Z,14.39
2022-12-31T21:01:06.261Z,14.44
2022-12-31T21:04:04.926Z,14.50
2022-12-31T21:06:25.536Z,14.47
2022-12-31T21:08:52.133Z,14.40
2022-12-31T21:11:37.270Z,14.40
2022-12-31T21:14:03.775Z,14.45
2022-12-31T21:16:30.425Z,14.46
2022-12-31T21:18:57.018Z,14.49
2022-12-31T21:21:23.740Z,14.48
2022-12-31T21:23:50.487Z,14.50
2022-12-31T21:26:17.357Z,14.53
2022-12-31T21:28:44.013Z,14.49
2022-12-31T21:31:12.810Z,14.46
2022-12-31T21:33:39.457Z,14.50
2022-12-31T21:36:06.369Z,14.48
2022-12-31T21:38:36.082Z,14.55
2022-12-31T21:41:04.064Z,14.60
2022-12-31T21:43:31.466Z,14.55
2022-12-31T21:46:05.950Z,14.62
2022-12-31T21:48:33.228Z,14.57
2022-12-31T21:51:10.226Z,14.51
2022-12-31T21:53:37.626Z,14.41
2022-12-31T21:56:11.901Z,14.32
2022-12-31T21:58:43.627Z,14.32
2022-12-31T22:01:35.251Z,14.31
2022-12-31T22:04:01.839Z,14.35
2022-12-31T22:06:28.397Z,14.41
2022-12-31T22:08:56.115Z,14.47
2022-12-31T22:11:25.401Z,14.47
2022-12-31T22:13:52.627Z,14.57
2022-12-31T22:16:20.260Z,14.53
2022-12-31T22:18:47.340Z,14.47
2022-12-31T22:21:18.992Z,14.51
2022-12-31T22:23:48.456Z,14.50
2022-12-31T22:26:17.694Z,14.50
2022-12-31T22:28:45.608Z,14.49
2022-12-31T22:31:24.626Z,14.48
2022-12-31T22:33:51.383Z,14.51
2022-12-31T22:36:20.662Z,14.52
2022-12-31T22:38:48.476Z,14.50
2022-12-31T22:41:20.936Z,14.51
2022-12-31T22:43:58.649Z,14.54
2022-12-31T22:46:29.634Z,14.60
2022-12-31T22:48:58.608Z,14.58
2022-12-31T22:51:28.073Z,14.56
2022-12-31T22:54:11.975Z,14.58
2022-12-31T22:56:39.146Z,14.58
2022-12-31T22:59:05.678Z,14.61
2022-12-31T23:01:32.435Z,14.61
2022-12-31T23:03:59.072Z,14.59
2022-12-31T23:06:26.290Z,14.62
2022-12-31T23:09:12.001Z,14.59
2022-12-31T23:11:40.265Z,14.50
2022-12-31T23:14:26.959Z,14.48
2022-12-31T23:17:30.172Z,14.58
2022-12-31T23:20:17.407Z,14.56
2022-12-31T23:23:02.553Z,14.58
2022-12-31T23:25:34.924Z,14.53
2022-12-31T23:28:01.790Z,14.59
2022-12-31T23:30:28.806Z,14.60
2022-12-31T23:32:55.304Z,14.60
2022-12-31T23:35:22.163Z,14.61
2022-12-31T23:37:48.659Z,14.60
2022-12-31T23:40:20.852Z,14.59
2022-12-31T23:42:48.045Z,14.59
2022-12-31T23:45:14.750Z,14.67
2022-12-31T23:47:44.380Z,14.67
2022-12-31T23:50:11.049Z,14.61
2022-12-31T23:52:37.663Z,14.54
2022-12-31T23:55:04.520Z,14.52
2022-12-31T23:57:31.133Z,14.56
2022-12-31T23:59:57.717Z,14.54
